sensor_id;sensor_type;location;lat;lon;timestamp;temperature;humidity
20384;DHT22;46458;50.966;7.002;2023-04-25T00:00:38;8.60;99.90
20384;DHT22;46458;50.966;7.002;2023-04-25T00:03:10;8.60;99.90
20384;DHT22;46458;50.966;7.002;2023-04-25T00:05:39;8.60;99.90
20384;DHT22;46458;50.966;7.002;2023-04-25T00:08:08;8.60;99.90
20384;DHT22;46458;50.966;7.002;2023-04-25T00:10:43;8.60;99.90
20384;DHT22;46458;50.966;7.002;2023-04-25T00:13:14;8.60;99.90
20384;DHT22;46458;50.966;7.002;2023-04-25T00:15:43;8.60;99.90
20384;DHT22;46458;50.966;7.002;2023-04-25T00:18:13;8.60;99.90
20384;DHT22;46458;50.966;7.002;2023-04-25T00:20:43;8.70;99.90
20384;DHT22;46458;50.966;7.002;2023-04-25T00:23:15;8.70;99.90
20384;DHT22;46458;50.966;7.002;2023-04-25T00:25:50;8.60;99.90
20384;DHT22;46458;50.966;7.002;2023-04-25T00:28:22;8.50;99.90
20384;DHT22;46458;50.966;7.002;2023-04-25T00:30:51;8.50;99.90
20384;DHT22;46458;50.966;7.002;2023-04-25T00:33:20;8.40;99.90
20384;DHT22;46458;50.966;7.002;2023-04-25T00:35:49;8.50;99.90
20384;DHT22;46458;50.966;7.002;2023-04-25T00:38:18;8.40;99.90
20384;DHT22;46458;50.966;7.002;2023-04-25T00:40:49;8.40;99.90
20384;DHT22;46458;50.966;7.002;2023-04-25T00:43:18;8.30;99.90
20384;DHT22;46458;50.966;7.002;2023-04-25T00:45:50;8.30;99.90
20384;DHT22;46458;50.966;7.002;2023-04-25T00:48:23;8.30;99.90
20384;DHT22;46458;50.966;7.002;2023-04-25T00:50:55;8.30;99.90
20384;DHT22;46458;50.966;7.002;2023-04-25T00:53:27;8.40;99.90
20384;DHT22;46458;50.966;7.002;2023-04-25T00:56:00;8.30;99.90
20384;DHT22;46458;50.966;7.002;2023-04-25T00:58:29;8.20;99.90
20384;DHT22;46458;50.966;7.002;2023-04-25T01:01:01;8.20;99.90
20384;DHT22;46458;50.966;7.002;2023-04-25T01:03:33;8.10;99.90
20384;DHT22;46458;50.966;7.002;2023-04-25T01:06:02;8.10;99.90
20384;DHT22;46458;50.966;7.002;2023-04-25T01:08:31;8.10;99.90
20384;DHT22;46458;50.966;7.002;2023-04-25T01:11:03;8.10;99.90
20384;DHT22;46458;50.966;7.002;2023-04-25T01:13:36;8.10;99.90
20384;DHT22;46458;50.966;7.002;2023-04-25T01:16:05;8.10;99.90
20384;DHT22;46458;50.966;7.002;2023-04-25T01:18:34;8.00;99.90
20384;DHT22;46458;50.966;7.002;2023-04-25T01:21:09;8.00;99.90
20384;DHT22;46458;50.966;7.002;2023-04-25T01:23:39;7.80;99.90
20384;DHT22;46458;50.966;7.002;2023-04-25T01:26:10;7.90;99.90
20384;DHT22;46458;50.966;7.002;2023-04-25T01:28:39;7.90;99.90
20384;DHT22;46458;50.966;7.002;2023-04-25T01:31:11;7.80;99.90
20384;DHT22;46458;50.966;7.002;2023-04-25T01:33:40;7.90;99.90
20384;DHT22;46458;50.966;7.002;2023-04-25T01:36:13;7.90;99.90
20384;DHT22;46458;50.966;7.002;2023-04-25T01:38:43;7.90;99.90
20384;DHT22;46458;50.966;7.002;2023-04-25T01:41:15;7.90;99.90
20384;DHT22;46458;50.966;7.002;2023-04-25T01:43:45;7.90;99.90
20384;DHT22;46458;50.966;7.002;2023-04-25T01:46:14;7.90;99.90
20384;DHT22;46458;50.966;7.002;2023-04-25T01:48:43;7.80;99.90
20384;DHT22;46458;50.966;7.002;2023-04-25T01:51:15;7.80;99.90
20384;DHT22;46458;50.966;7.002;2023-04-25T01:53:44;7.80;99.90
20384;DHT22;46458;50.966;7.002;2023-04-25T01:56:14;7.80;99.90
20384;DHT22;46458;50.966;7.002;2023-04-25T01:58:44;7.60;99.90
20384;DHT22;46458;50.966;7.002;2023-04-25T02:01:21;7.60;99.90
20384;DHT22;46458;50.966;7.002;2023-04-25T02:04:12;7.60;99.90
20384;DHT22;46458;50.966;7.002;2023-04-25T02:06:44;7.60;99.90
20384;DHT22;46458;50.966;7.002;2023-04-25T02:09:13;7.60;99.90
20384;DHT22;46458;50.966;7.002;2023-04-25T02:11:52;7.60;99.90
20384;DHT22;46458;50.966;7.002;2023-04-25T02:14:31;7.60;99.90
20384;DHT22;46458;50.966;7.002;2023-04-25T02:17:15;7.50;99.90
20384;DHT22;46458;50.966;7.002;2023-04-25T02:19:45;7.50;99.90
20384;DHT22;46458;50.966;7.002;2023-04-25T02:22:16;7.50;99.90
20384;DHT22;46458;50.966;7.002;2023-04-25T02:24:45;7.40;99.90
20384;DHT22;46458;50.966;7.002;2023-04-25T02:27:14;7.40;99.90
20384;DHT22;46458;50.966;7.002;2023-04-25T02:29:43;7.40;99.90
20384;DHT22;46458;50.966;7.002;2023-04-25T02:32:14;7.40;99.90
20384;DHT22;46458;50.966;7.002;2023-04-25T02:34:46;7.40;99.90
20384;DHT22;46458;50.966;7.002;2023-04-25T02:37:18;7.40;99.90
20384;DHT22;46458;50.966;7.002;2023-04-25T02:39:50;7.40;99.90
20384;DHT22;46458;50.966;7.002;2023-04-25T02:42:19;7.40;99.90
20384;DHT22;46458;50.966;7.002;2023-04-25T02:44:49;7.40;99.90
20384;DHT22;46458;50.966;7.002;2023-04-25T02:47:18;7.50;99.90
20384;DHT22;46458;50.966;7.002;2023-04-25T02:49:49;7.60;99.90
20384;DHT22;46458;50.966;7.002;2023-04-25T02:52:21;7.70;99.90
20384;DHT22;46458;50.966;7.002;2023-04-25T02:55:01;7.70;99.90
20384;DHT22;46458;50.966;7.002;2023-04-25T02:57:31;7.70;99.90
20384;DHT22;46458;50.966;7.002;2023-04-25T03:00:00;7.80;99.90
20384;DHT22;46458;50.966;7.002;2023-04-25T03:02:29;7.80;99.90
20384;DHT22;46458;50.966;7.002;2023-04-25T03:04:58;7.90;99.90
20384;DHT22;46458;50.966;7.002;2023-04-25T03:07:31;7.90;99.90
20384;DHT22;46458;50.966;7.002;2023-04-25T03:10:03;8.00;99.90
20384;DHT22;46458;50.966;7.002;2023-04-25T03:12:37;7.90;99.90
20384;DHT22;46458;50.966;7.002;2023-04-25T03:15:08;7.90;99.90
20384;DHT22;46458;50.966;7.002;2023-04-25T03:17:37;8.00;99.90
20384;DHT22;46458;50.966;7.002;2023-04-25T03:20:07;8.00;99.90
20384;DHT22;46458;50.966;7.002;2023-04-25T03:22:39;8.00;99.90
20384;DHT22;46458;50.966;7.002;2023-04-25T03:25:08;7.90;99.90
20384;DHT22;46458;50.966;7.002;2023-04-25T03:27:37;8.00;99.90
20384;DHT22;46458;50.966;7.002;2023-04-25T03:30:07;7.90;99.90
20384;DHT22;46458;50.966;7.002;2023-04-25T03:32:37;7.80;99.90
20384;DHT22;46458;50.966;7.002;2023-04-25T03:35:07;7.80;99.90
20384;DHT22;46458;50.966;7.002;2023-04-25T03:37:41;7.80;99.90
20384;DHT22;46458;50.966;7.002;2023-04-25T03:40:12;7.70;99.90
20384;DHT22;46458;50.966;7.002;2023-04-25T03:43:07;7.70;99.90
20384;DHT22;46458;50.966;7.002;2023-04-25T03:45:37;7.80;99.90
20384;DHT22;46458;50.966;7.002;2023-04-25T03:48:06;7.90;99.90
20384;DHT22;46458;50.966;7.002;2023-04-25T03:50:35;7.90;99.90
20384;DHT22;46458;50.966;7.002;2023-04-25T03:53:08;7.80;99.90
20384;DHT22;46458;50.966;7.002;2023-04-25T03:55:56;7.90;99.90
20384;DHT22;46458;50.966;7.002;2023-04-25T03:58:25;7.90;99.90
20384;DHT22;46458;50.966;7.002;2023-04-25T04:00:54;7.90;99.90
20384;DHT22;46458;50.966;7.002;2023-04-25T04:03:23;7.90;99.90
20384;DHT22;46458;50.966;7.002;2023-04-25T04:05:56;7.90;99.90
20384;DHT22;46458;50.966;7.002;2023-04-25T04:08:27;8.00;99.90
20384;DHT22;46458;50.966;7.002;2023-04-25T04:10:56;8.00;99.90
20384;DHT22;46458;50.966;7.002;2023-04-25T04:13:29;8.00;99.90
20384;DHT22;46458;50.966;7.002;2023-04-25T04:15:58;8.00;99.90
20384;DHT22;46458;50.966;7.002;2023-04-25T04:18:27;8.10;99.90
20384;DHT22;46458;50.966;7.002;2023-04-25T04:20:56;8.00;99.90
20384;DHT22;46458;50.966;7.002;2023-04-25T04:23:31;7.90;99.90
20384;DHT22;46458;50.966;7.002;2023-04-25T04:26:00;7.90;99.90
20384;DHT22;46458;50.966;7.002;2023-04-25T04:28:50;7.90;99.90
20384;DHT22;46458;50.966;7.002;2023-04-25T04:31:26;7.90;99.90
20384;DHT22;46458;50.966;7.002;2023-04-25T04:33:55;7.90;99.90
20384;DHT22;46458;50.966;7.002;2023-04-25T04:36:24;8.00;99.90
20384;DHT22;46458;50.966;7.002;2023-04-25T04:38:59;8.00;99.90
20384;DHT22;46458;50.966;7.002;2023-04-25T04:41:47;8.00;99.90
20384;DHT22;46458;50.966;7.002;2023-04-25T04:44:45;7.90;99.90
20384;DHT22;46458;50.966;7.002;2023-04-25T04:47:47;7.90;99.90
20384;DHT22;46458;50.966;7.002;2023-04-25T04:50:36;7.90;99.90
20384;DHT22;46458;50.966;7.002;2023-04-25T04:53:17;7.90;99.90
20384;DHT22;46458;50.966;7.002;2023-04-25T04:56:10;7.90;99.90
20384;DHT22;46458;50.966;7.002;2023-04-25T04:58:55;8.00;99.90
20384;DHT22;46458;50.966;7.002;2023-04-25T05:01:38;7.90;99.90
20384;DHT22;46458;50.966;7.002;2023-04-25T05:04:18;7.90;99.90
20384;DHT22;46458;50.966;7.002;2023-04-25T05:07:06;7.90;99.90
20384;DHT22;46458;50.966;7.002;2023-04-25T05:09:59;7.80;99.90
20384;DHT22;46458;50.966;7.002;2023-04-25T05:12:44;7.80;99.90
20384;DHT22;46458;50.966;7.002;2023-04-25T05:15:36;7.80;99.90
20384;DHT22;46458;50.966;7.002;2023-04-25T05:18:30;7.80;99.90
20384;DHT22;46458;50.966;7.002;2023-04-25T05:21:25;7.90;99.90
20384;DHT22;46458;50.966;7.002;2023-04-25T05:24:14;7.90;99.90
20384;DHT22;46458;50.966;7.002;2023-04-25T05:27:11;8.00;99.90
20384;DHT22;46458;50.966;7.002;2023-04-25T05:30:08;8.00;99.90
20384;DHT22;46458;50.966;7.002;2023-04-25T05:32:57;8.00;99.90
20384;DHT22;46458;50.966;7.002;2023-04-25T05:35:26;8.00;99.90
20384;DHT22;46458;50.966;7.002;2023-04-25T05:37:55;8.10;99.90
20384;DHT22;46458;50.966;7.002;2023-04-25T05:40:40;8.20;99.90
20384;DHT22;46458;50.966;7.002;2023-04-25T05:43:20;8.20;99.90
20384;DHT22;46458;50.966;7.002;2023-04-25T05:46:01;8.20;99.90
20384;DHT22;46458;50.966;7.002;2023-04-25T05:48:50;8.20;99.90
20384;DHT22;46458;50.966;7.002;2023-04-25T05:51:35;8.20;99.90
20384;DHT22;46458;50.966;7.002;2023-04-25T05:54:19;8.20;99.90
20384;DHT22;46458;50.966;7.002;2023-04-25T05:56:48;8.10;99.90
20384;DHT22;46458;50.966;7.002;2023-04-25T05:59:17;8.10;99.90
20384;DHT22;46458;50.966;7.002;2023-04-25T06:01:48;8.10;99.90
20384;DHT22;46458;50.966;7.002;2023-04-25T06:04:18;8.20;99.90
20384;DHT22;46458;50.966;7.002;2023-04-25T06:06:47;8.20;99.90
20384;DHT22;46458;50.966;7.002;2023-04-25T06:09:19;8.20;99.90
20384;DHT22;46458;50.966;7.002;2023-04-25T06:11:48;8.30;99.90
20384;DHT22;46458;50.966;7.002;2023-04-25T06:14:17;8.40;99.90
20384;DHT22;46458;50.966;7.002;2023-04-25T06:16:51;8.40;99.90
20384;DHT22;46458;50.966;7.002;2023-04-25T06:19:20;8.40;99.90
20384;DHT22;46458;50.966;7.002;2023-04-25T06:21:49;8.50;99.90
20384;DHT22;46458;50.966;7.002;2023-04-25T06:24:19;8.60;99.90
20384;DHT22;46458;50.966;7.002;2023-04-25T06:26:48;8.80;99.90
20384;DHT22;46458;50.966;7.002;2023-04-25T06:29:17;8.90;99.90
20384;DHT22;46458;50.966;7.002;2023-04-25T06:31:46;9.00;99.90
20384;DHT22;46458;50.966;7.002;2023-04-25T06:34:18;9.10;99.90
20384;DHT22;46458;50.966;7.002;2023-04-25T06:36:47;9.20;99.90
20384;DHT22;46458;50.966;7.002;2023-04-25T06:39:16;9.30;99.90
20384;DHT22;46458;50.966;7.002;2023-04-25T06:41:46;9.30;99.90
20384;DHT22;46458;50.966;7.002;2023-04-25T06:44:34;9.20;99.90
20384;DHT22;46458;50.966;7.002;2023-04-25T06:47:06;9.30;99.90
20384;DHT22;46458;50.966;7.002;2023-04-25T06:49:39;9.30;99.90
20384;DHT22;46458;50.966;7.002;2023-04-25T06:52:09;9.40;99.90
20384;DHT22;46458;50.966;7.002;2023-04-25T06:54:38;9.40;99.90
20384;DHT22;46458;50.966;7.002;2023-04-25T06:57:19;9.50;99.90
20384;DHT22;46458;50.966;7.002;2023-04-25T06:59:48;9.60;99.90
20384;DHT22;46458;50.966;7.002;2023-04-25T07:02:26;9.50;99.90
20384;DHT22;46458;50.966;7.002;2023-04-25T07:04:58;9.60;99.90
20384;DHT22;46458;50.966;7.002;2023-04-25T07:07:30;9.60;99.90
20384;DHT22;46458;50.966;7.002;2023-04-25T07:10:02;9.70;99.90
20384;DHT22;46458;50.966;7.002;2023-04-25T07:12:31;9.80;99.90
20384;DHT22;46458;50.966;7.002;2023-04-25T07:15:02;9.90;99.90
20384;DHT22;46458;50.966;7.002;2023-04-25T07:17:35;9.90;99.90
20384;DHT22;46458;50.966;7.002;2023-04-25T07:20:08;9.90;99.90
20384;DHT22;46458;50.966;7.002;2023-04-25T07:22:37;10.00;99.90
20384;DHT22;46458;50.966;7.002;2023-04-25T07:25:07;10.00;99.90
20384;DHT22;46458;50.966;7.002;2023-04-25T07:27:38;10.10;99.90
20384;DHT22;46458;50.966;7.002;2023-04-25T07:30:18;10.10;99.90
20384;DHT22;46458;50.966;7.002;2023-04-25T07:32:48;10.00;99.90
20384;DHT22;46458;50.966;7.002;2023-04-25T07:35:19;10.10;99.90
20384;DHT22;46458;50.966;7.002;2023-04-25T07:37:48;10.10;99.90
20384;DHT22;46458;50.966;7.002;2023-04-25T07:40:19;10.00;99.90
20384;DHT22;46458;50.966;7.002;2023-04-25T07:42:52;10.20;99.90
20384;DHT22;46458;50.966;7.002;2023-04-25T07:45:28;10.40;99.90
20384;DHT22;46458;50.966;7.002;2023-04-25T07:47:57;10.40;99.90
20384;DHT22;46458;50.966;7.002;2023-04-25T07:50:29;10.40;99.90
20384;DHT22;46458;50.966;7.002;2023-04-25T07:52:58;10.50;99.90
20384;DHT22;46458;50.966;7.002;2023-04-25T07:55:32;10.50;99.90
20384;DHT22;46458;50.966;7.002;2023-04-25T07:58:15;10.50;99.90
20384;DHT22;46458;50.966;7.002;2023-04-25T08:00:58;10.40;99.90
20384;DHT22;46458;50.966;7.002;2023-04-25T08:03:48;10.40;99.90
20384;DHT22;46458;50.966;7.002;2023-04-25T08:06:27;10.60;99.90
20384;DHT22;46458;50.966;7.002;2023-04-25T08:09:06;10.70;99.90
20384;DHT22;46458;50.966;7.002;2023-04-25T08:11:38;11.00;99.90
20384;DHT22;46458;50.966;7.002;2023-04-25T08:14:09;11.20;99.90
20384;DHT22;46458;50.966;7.002;2023-04-25T08:16:41;11.30;99.90
20384;DHT22;46458;50.966;7.002;2023-04-25T08:19:13;11.30;99.90
20384;DHT22;46458;50.966;7.002;2023-04-25T08:21:47;11.40;99.90
20384;DHT22;46458;50.966;7.002;2023-04-25T08:24:24;11.20;99.90
20384;DHT22;46458;50.966;7.002;2023-04-25T08:26:53;11.00;99.90
20384;DHT22;46458;50.966;7.002;2023-04-25T08:29:27;11.00;99.90
20384;DHT22;46458;50.966;7.002;2023-04-25T08:31:56;10.90;99.90
20384;DHT22;46458;50.966;7.002;2023-04-25T08:34:25;10.80;99.90
20384;DHT22;46458;50.966;7.002;2023-04-25T08:36:57;10.70;99.90
20384;DHT22;46458;50.966;7.002;2023-04-25T08:39:36;10.80;99.90
20384;DHT22;46458;50.966;7.002;2023-04-25T08:42:31;11.00;99.90
20384;DHT22;46458;50.966;7.002;2023-04-25T08:45:03;10.80;99.90
20384;DHT22;46458;50.966;7.002;2023-04-25T08:47:37;10.80;99.90
20384;DHT22;46458;50.966;7.002;2023-04-25T08:50:07;10.60;99.90
20384;DHT22;46458;50.966;7.002;2023-04-25T08:52:44;10.50;99.90
20384;DHT22;46458;50.966;7.002;2023-04-25T08:55:14;10.30;99.90
20384;DHT22;46458;50.966;7.002;2023-04-25T08:57:44;10.20;99.90
20384;DHT22;46458;50.966;7.002;2023-04-25T09:00:14;10.20;99.90
20384;DHT22;46458;50.966;7.002;2023-04-25T09:02:47;10.20;99.90
20384;DHT22;46458;50.966;7.002;2023-04-25T09:05:15;10.30;99.90
20384;DHT22;46458;50.966;7.002;2023-04-25T09:07:47;10.30;99.90
20384;DHT22;46458;50.966;7.002;2023-04-25T09:10:16;10.20;99.90
20384;DHT22;46458;50.966;7.002;2023-04-25T09:13:02;10.20;99.90
20384;DHT22;46458;50.966;7.002;2023-04-25T09:15:51;10.20;99.90
20384;DHT22;46458;50.966;7.002;2023-04-25T09:18:40;10.20;99.90
20384;DHT22;46458;50.966;7.002;2023-04-25T09:21:13;10.20;99.90
20384;DHT22;46458;50.966;7.002;2023-04-25T09:23:48;10.20;99.90
20384;DHT22;46458;50.966;7.002;2023-04-25T09:26:19;10.30;99.90
20384;DHT22;46458;50.966;7.002;2023-04-25T09:29:04;10.40;99.90
20384;DHT22;46458;50.966;7.002;2023-04-25T09:31:35;10.70;99.90
20384;DHT22;46458;50.966;7.002;2023-04-25T09:34:06;10.70;99.90
20384;DHT22;46458;50.966;7.002;2023-04-25T09:36:43;11.00;99.90
20384;DHT22;46458;50.966;7.002;2023-04-25T09:39:33;11.20;99.90
20384;DHT22;46458;50.966;7.002;2023-04-25T09:42:10;11.40;99.90
20384;DHT22;46458;50.966;7.002;2023-04-25T09:44:43;11.20;99.90
20384;DHT22;46458;50.966;7.002;2023-04-25T09:47:15;11.10;99.90
20384;DHT22;46458;50.966;7.002;2023-04-25T09:49:47;10.90;99.90
20384;DHT22;46458;50.966;7.002;2023-04-25T09:52:21;10.80;99.90
20384;DHT22;46458;50.966;7.002;2023-04-25T09:55:07;10.70;99.90
20384;DHT22;46458;50.966;7.002;2023-04-25T09:57:37;10.60;99.90
20384;DHT22;46458;50.966;7.002;2023-04-25T10:00:08;10.60;99.90
20384;DHT22;46458;50.966;7.002;2023-04-25T10:02:42;10.60;99.90
20384;DHT22;46458;50.966;7.002;2023-04-25T10:05:52;10.50;99.90
20384;DHT22;46458;50.966;7.002;2023-04-25T10:08:22;10.60;99.90
20384;DHT22;46458;50.966;7.002;2023-04-25T10:10:55;10.50;99.90
20384;DHT22;46458;50.966;7.002;2023-04-25T10:13:24;10.50;99.90
20384;DHT22;46458;50.966;7.002;2023-04-25T10:15:57;10.50;99.90
20384;DHT22;46458;50.966;7.002;2023-04-25T10:18:27;10.50;99.90
20384;DHT22;46458;50.966;7.002;2023-04-25T10:20:56;10.50;99.90
20384;DHT22;46458;50.966;7.002;2023-04-25T10:23:26;10.40;99.90
20384;DHT22;46458;50.966;7.002;2023-04-25T10:25:58;10.40;99.90
20384;DHT22;46458;50.966;7.002;2023-04-25T10:28:28;10.50;99.90
20384;DHT22;46458;50.966;7.002;2023-04-25T10:30:58;10.50;99.90
20384;DHT22;46458;50.966;7.002;2023-04-25T10:33:32;10.60;99.90
20384;DHT22;46458;50.966;7.002;2023-04-25T10:36:09;10.60;99.90
20384;DHT22;46458;50.966;7.002;2023-04-25T10:38:39;10.80;99.90
20384;DHT22;46458;50.966;7.002;2023-04-25T10:41:12;11.50;99.90
20384;DHT22;46458;50.966;7.002;2023-04-25T10:43:46;11.90;99.90
20384;DHT22;46458;50.966;7.002;2023-04-25T10:46:17;12.00;99.90
20384;DHT22;46458;50.966;7.002;2023-04-25T10:48:50;11.80;99.90
20384;DHT22;46458;50.966;7.002;2023-04-25T10:51:21;11.60;99.90
20384;DHT22;46458;50.966;7.002;2023-04-25T10:53:59;11.50;99.90
20384;DHT22;46458;50.966;7.002;2023-04-25T10:56:31;11.20;99.90
20384;DHT22;46458;50.966;7.002;2023-04-25T10:59:11;11.10;99.90
20384;DHT22;46458;50.966;7.002;2023-04-25T11:01:41;11.00;99.90
20384;DHT22;46458;50.966;7.002;2023-04-25T11:04:19;10.90;99.90
20384;DHT22;46458;50.966;7.002;2023-04-25T11:06:59;10.90;99.90
20384;DHT22;46458;50.966;7.002;2023-04-25T11:09:29;10.80;99.90
20384;DHT22;46458;50.966;7.002;2023-04-25T11:12:01;10.80;99.90
20384;DHT22;46458;50.966;7.002;2023-04-25T11:14:32;10.80;99.90
20384;DHT22;46458;50.966;7.002;2023-04-25T11:17:01;10.90;99.90
20384;DHT22;46458;50.966;7.002;2023-04-25T11:19:31;11.10;99.90
20384;DHT22;46458;50.966;7.002;2023-04-25T11:22:02;11.20;99.90
20384;DHT22;46458;50.966;7.002;2023-04-25T11:24:34;11.30;99.90
20384;DHT22;46458;50.966;7.002;2023-04-25T11:27:05;11.30;99.90
20384;DHT22;46458;50.966;7.002;2023-04-25T11:29:35;11.40;99.90
20384;DHT22;46458;50.966;7.002;2023-04-25T11:32:04;11.40;99.90
20384;DHT22;46458;50.966;7.002;2023-04-25T11:34:33;11.40;99.90
20384;DHT22;46458;50.966;7.002;2023-04-25T11:37:03;11.40;99.90
20384;DHT22;46458;50.966;7.002;2023-04-25T11:39:32;11.30;99.90
20384;DHT22;46458;50.966;7.002;2023-04-25T11:42:01;11.30;99.90
20384;DHT22;46458;50.966;7.002;2023-04-25T11:44:32;11.30;99.90
20384;DHT22;46458;50.966;7.002;2023-04-25T11:47:01;11.40;99.90
20384;DHT22;46458;50.966;7.002;2023-04-25T11:49:31;11.70;99.90
20384;DHT22;46458;50.966;7.002;2023-04-25T11:52:01;12.30;99.90
20384;DHT22;46458;50.966;7.002;2023-04-25T11:54:30;12.40;99.90
20384;DHT22;46458;50.966;7.002;2023-04-25T11:56:59;12.30;99.90
20384;DHT22;46458;50.966;7.002;2023-04-25T11:59:29;12.20;99.90
20384;DHT22;46458;50.966;7.002;2023-04-25T12:02:00;12.30;99.90
20384;DHT22;46458;50.966;7.002;2023-04-25T12:04:32;12.70;99.90
20384;DHT22;46458;50.966;7.002;2023-04-25T12:07:01;13.10;99.90
20384;DHT22;46458;50.966;7.002;2023-04-25T12:09:32;13.20;99.90
20384;DHT22;46458;50.966;7.002;2023-04-25T12:12:04;13.10;99.90
20384;DHT22;46458;50.966;7.002;2023-04-25T12:14:34;13.30;99.90
20384;DHT22;46458;50.966;7.002;2023-04-25T12:17:08;13.60;99.90
20384;DHT22;46458;50.966;7.002;2023-04-25T12:19:40;13.60;99.90
20384;DHT22;46458;50.966;7.002;2023-04-25T12:22:20;13.70;99.90
20384;DHT22;46458;50.966;7.002;2023-04-25T12:24:52;14.00;99.90
20384;DHT22;46458;50.966;7.002;2023-04-25T12:27:25;14.20;99.90
20384;DHT22;46458;50.966;7.002;2023-04-25T12:29:55;14.20;99.90
20384;DHT22;46458;50.966;7.002;2023-04-25T12:32:27;14.00;99.90
20384;DHT22;46458;50.966;7.002;2023-04-25T12:34:59;13.70;99.90
20384;DHT22;46458;50.966;7.002;2023-04-25T12:37:28;13.40;99.90
20384;DHT22;46458;50.966;7.002;2023-04-25T12:39:57;13.10;99.90
20384;DHT22;46458;50.966;7.002;2023-04-25T12:42:26;12.90;99.90
20384;DHT22;46458;50.966;7.002;2023-04-25T12:44:55;12.80;99.90
20384;DHT22;46458;50.966;7.002;2023-04-25T12:47:26;12.70;99.90
20384;DHT22;46458;50.966;7.002;2023-04-25T12:49:55;12.60;99.90
20384;DHT22;46458;50.966;7.002;2023-04-25T12:52:24;12.60;99.90
20384;DHT22;46458;50.966;7.002;2023-04-25T12:54:53;12.20;99.90
20384;DHT22;46458;50.966;7.002;2023-04-25T12:57:22;11.90;99.90
20384;DHT22;46458;50.966;7.002;2023-04-25T12:59:51;11.80;99.90
20384;DHT22;46458;50.966;7.002;2023-04-25T13:02:20;11.70;99.90
20384;DHT22;46458;50.966;7.002;2023-04-25T13:04:51;11.80;99.90
20384;DHT22;46458;50.966;7.002;2023-04-25T13:07:20;11.80;99.90
20384;DHT22;46458;50.966;7.002;2023-04-25T13:09:48;11.70;99.90
20384;DHT22;46458;50.966;7.002;2023-04-25T13:12:17;11.70;99.90
20384;DHT22;46458;50.966;7.002;2023-04-25T13:14:46;11.80;99.90
20384;DHT22;46458;50.966;7.002;2023-04-25T13:17:15;12.30;99.90
20384;DHT22;46458;50.966;7.002;2023-04-25T13:19:44;12.60;99.90
20384;DHT22;46458;50.966;7.002;2023-04-25T13:22:15;13.10;99.90
20384;DHT22;46458;50.966;7.002;2023-04-25T13:24:45;13.40;99.90
20384;DHT22;46458;50.966;7.002;2023-04-25T13:27:14;13.70;99.90
20384;DHT22;46458;50.966;7.002;2023-04-25T13:29:47;13.80;99.90
20384;DHT22;46458;50.966;7.002;2023-04-25T13:32:16;13.90;99.90
20384;DHT22;46458;50.966;7.002;2023-04-25T13:34:48;13.90;99.90
20384;DHT22;46458;50.966;7.002;2023-04-25T13:37:19;14.00;99.90
20384;DHT22;46458;50.966;7.002;2023-04-25T13:39:50;14.30;99.90
20384;DHT22;46458;50.966;7.002;2023-04-25T13:42:19;14.00;99.90
20384;DHT22;46458;50.966;7.002;2023-04-25T13:44:51;13.70;99.90
20384;DHT22;46458;50.966;7.002;2023-04-25T13:47:20;13.80;99.90
20384;DHT22;46458;50.966;7.002;2023-04-25T13:49:49;14.00;99.90
20384;DHT22;46458;50.966;7.002;2023-04-25T13:52:21;14.40;99.90
20384;DHT22;46458;50.966;7.002;2023-04-25T13:54:50;14.60;99.90
20384;DHT22;46458;50.966;7.002;2023-04-25T13:57:19;14.80;99.90
20384;DHT22;46458;50.966;7.002;2023-04-25T13:59:48;15.00;99.90
20384;DHT22;46458;50.966;7.002;2023-04-25T14:02:20;15.10;99.90
20384;DHT22;46458;50.966;7.002;2023-04-25T14:04:48;15.30;99.90
20384;DHT22;46458;50.966;7.002;2023-04-25T14:07:20;15.40;99.90
20384;DHT22;46458;50.966;7.002;2023-04-25T14:09:49;15.50;99.90
20384;DHT22;46458;50.966;7.002;2023-04-25T14:12:18;15.30;99.90
20384;DHT22;46458;50.966;7.002;2023-04-25T14:14:47;14.90;99.90
20384;DHT22;46458;50.966;7.002;2023-04-25T14:17:16;14.70;99.90
20384;DHT22;46458;50.966;7.002;2023-04-25T14:19:49;14.80;99.90
20384;DHT22;46458;50.966;7.002;2023-04-25T14:22:20;14.80;99.90
20384;DHT22;46458;50.966;7.002;2023-04-25T14:24:49;14.40;99.90
20384;DHT22;46458;50.966;7.002;2023-04-25T14:27:18;14.20;99.90
20384;DHT22;46458;50.966;7.002;2023-04-25T14:29:47;14.30;99.90
20384;DHT22;46458;50.966;7.002;2023-04-25T14:32:16;14.80;99.90
20384;DHT22;46458;50.966;7.002;2023-04-25T14:34:45;15.20;99.90
20384;DHT22;46458;50.966;7.002;2023-04-25T14:37:15;15.20;99.90
20384;DHT22;46458;50.966;7.002;2023-04-25T14:39:48;15.10;99.90
20384;DHT22;46458;50.966;7.002;2023-04-25T14:42:17;14.90;99.90
20384;DHT22;46458;50.966;7.002;2023-04-25T14:44:46;15.10;99.90
20384;DHT22;46458;50.966;7.002;2023-04-25T14:47:15;15.20;99.90
20384;DHT22;46458;50.966;7.002;2023-04-25T14:49:49;15.10;99.90
20384;DHT22;46458;50.966;7.002;2023-04-25T14:52:20;15.00;99.90
20384;DHT22;46458;50.966;7.002;2023-04-25T14:54:52;14.70;99.90
20384;DHT22;46458;50.966;7.002;2023-04-25T14:57:25;14.50;99.90
20384;DHT22;46458;50.966;7.002;2023-04-25T14:59:54;14.10;99.90
20384;DHT22;46458;50.966;7.002;2023-04-25T15:02:23;13.70;99.90
20384;DHT22;46458;50.966;7.002;2023-04-25T15:04:53;13.90;99.90
20384;DHT22;46458;50.966;7.002;2023-04-25T15:07:22;13.70;99.90
20384;DHT22;46458;50.966;7.002;2023-04-25T15:09:54;13.60;99.90
20384;DHT22;46458;50.966;7.002;2023-04-25T15:12:25;13.30;99.90
20384;DHT22;46458;50.966;7.002;2023-04-25T15:14:54;13.30;99.90
20384;DHT22;46458;50.966;7.002;2023-04-25T15:17:23;13.10;99.90
20384;DHT22;46458;50.966;7.002;2023-04-25T15:19:56;13.30;99.90
20384;DHT22;46458;50.966;7.002;2023-04-25T15:22:26;13.50;99.90
20384;DHT22;46458;50.966;7.002;2023-04-25T15:25:00;13.70;99.90
20384;DHT22;46458;50.966;7.002;2023-04-25T15:27:29;14.10;99.90
20384;DHT22;46458;50.966;7.002;2023-04-25T15:30:01;14.40;99.90
20384;DHT22;46458;50.966;7.002;2023-04-25T15:32:31;14.70;99.90
20384;DHT22;46458;50.966;7.002;2023-04-25T15:35:03;14.90;99.90
20384;DHT22;46458;50.966;7.002;2023-04-25T15:37:32;15.30;99.90
20384;DHT22;46458;50.966;7.002;2023-04-25T15:40:05;15.60;99.90
20384;DHT22;46458;50.966;7.002;2023-04-25T15:42:34;15.90;99.90
20384;DHT22;46458;50.966;7.002;2023-04-25T15:45:10;16.00;99.90
20384;DHT22;46458;50.966;7.002;2023-04-25T15:47:39;15.90;99.90
20384;DHT22;46458;50.966;7.002;2023-04-25T15:50:09;15.20;99.90
20384;DHT22;46458;50.966;7.002;2023-04-25T15:52:39;14.70;99.90
20384;DHT22;46458;50.966;7.002;2023-04-25T15:55:11;14.50;99.90
20384;DHT22;46458;50.966;7.002;2023-04-25T15:57:41;14.30;99.90
20384;DHT22;46458;50.966;7.002;2023-04-25T16:00:12;14.10;99.90
20384;DHT22;46458;50.966;7.002;2023-04-25T16:02:44;13.90;99.90
20384;DHT22;46458;50.966;7.002;2023-04-25T16:05:16;13.70;99.90
20384;DHT22;46458;50.966;7.002;2023-04-25T16:07:45;13.30;99.90
20384;DHT22;46458;50.966;7.002;2023-04-25T16:10:18;13.10;99.90
20384;DHT22;46458;50.966;7.002;2023-04-25T16:12:47;12.80;99.90